仁川, 大韓民國

2014年7月23日 04時07分 (GMT +0900)
Incheon International (RKSI) 海拔 23 ft | 37.47 °N, 126.45 °E | Change Station

Current weather conditions updated 7 minutes ago

Light Rain
微雨
75 °F
感覺像 75 °F
14
風 變化 風 來自 西南

今天比昨天 涼爽。 多雲且上午有雨。。

今日
高 -- | 低 -- °F
--% 降水機率
昨天
高 -- | 低 -- °F
Precip. -- 英寸
5:29 AM 7:49 PM
殘月, 15% visible
氣壓 29.65 英寸
能見度 2.8 英里
多雲 少數 500 ft
多雲 2000 ft
陰天 8000 ft
露點 73 °F
濕度 94%
降雨量 0.00 英寸
積雪深度 不適用。
紫外線 0 / 12
花粉 不適用。
空氣質素 不適用。
Flu Activity 不適用。
METAR RKSI 221900Z 23012KT 4500 -RA BR FEW005 BKN020 OVC080 24/23 Q1004 NOSIG

More Conditions Fewer Conditions

氣壓 29.65 英寸
能見度 2.8 英里
多雲 少數 500 ft
多雲 2000 ft
陰天 8000 ft
露點 73 °F
濕度 94%
降雨量 0.00 英寸
積雪深度 不適用。
紫外線 0 / 12
花粉 不適用。
空氣質素 不適用。
Flu Activity 不適用。
METAR RKSI 221900Z 23012KT 4500 -RA BR FEW005 BKN020 OVC080 24/23 Q1004 NOSIG

More Conditions Fewer Conditions

10-Day Weather Forecast

Almanac

天文

Jul. 23, 2014 昇起 降落
實際時間 05:29 KST 19:49 KST
民用曙暮光 05:00 KST 20:19 KST
航海曙暮光 04:23 KST 20:55 KST
天文學微明 03:43 KST 21:35 KST
月亮 02:20 KST (7/23) 16:48 KST (7/23)
可見光的長度 15h 19m
白晝時間
14h 19m
Tomorrow will be 1m 31s shorter.
殘月, 15% of the Moon is Illuminated
7月 22
殘月
7月 26
8月 3
第一季
8月 10
滿月
8月 17
第四季

昨天之最

國家高溫 國家低溫

Community

WunderPhotos

Upload Photos

1,736,333 照片已上傳!

Nearby

積雪量

Not available.

地震活動

城市 距離 時間和日期
附近沒有最近發生的地震活動。
顯示的最小幅度是2.5。

沿海水溫

地點 溫度
無任何天氣監測站報告

附近的氣象站

氣象站位置 溫度 高溫指數 露點 濕度 Precip. 海拔 最近更新時間 類型
Yongdu-Dong 81.8 °F 90 °F 77 °F 85% 東北偏東  風  0.0 英里每小時 0.00 英寸 / hr 144 ft 4:07 AM KST 正常

Show More Stations Show Fewer Stations